Time;durP1;ratioP1;P1;durP2;ratioP2;P2;SDS_P1;SDS_P2;PMS_P1;PMS_P2;Temp;Humidity;BMP_temperature;BMP_pressure;BME280_temperature;BME280_humidity;BME280_pressure;Samples;Min_cycle;Max_cycle;Signal;HPM_P1;HPM_P2
2023/10/31 00:01:25;;;;;;;4.85;2.90;;;10.50;99.90;;;;;;4957208;28;85960;-75
2023/10/31 00:03:50;;;;;;;8.70;3.92;;;10.50;99.90;;;;;;4956281;28;87089;-74
2023/10/31 00:06:16;;;;;;;10.30;3.80;;;10.50;99.90;;;;;;4951083;28;85858;-75
2023/10/31 00:08:41;;;;;;;8.25;4.65;;;10.50;99.90;;;;;;4948632;28;86890;-75
2023/10/31 00:11:07;;;;;;;9.38;5.80;;;10.50;99.90;;;;;;4956692;28;87013;-74
2023/10/31 00:13:33;;;;;;;12.93;5.72;;;10.50;99.90;;;;;;4952558;28;87394;-74
2023/10/31 00:15:58;;;;;;;12.48;6.35;;;10.50;99.90;;;;;;4950493;28;86441;-75
2023/10/31 00:18:24;;;;;;;20.15;7.38;;;10.50;99.90;;;;;;4945430;28;86995;-75
2023/10/31 00:20:50;;;;;;;21.15;8.88;;;10.50;99.90;;;;;;4947643;28;86478;-76
2023/10/31 00:23:17;;;;;;;23.27;9.02;;;10.50;99.90;;;;;;4949277;28;87354;-76
2023/10/31 00:25:44;;;;;;;20.05;9.05;;;10.50;99.90;;;;;;4949061;28;86301;-75
2023/10/31 00:28:10;;;;;;;22.88;9.82;;;10.50;99.90;;;;;;4948868;28;86935;-75
2023/10/31 00:30:37;;;;;;;23.52;10.38;;;10.50;99.90;;;;;;4953678;28;87040;-74
2023/10/31 00:33:03;;;;;;;25.88;11.25;;;10.50;99.90;;;;;;4951054;28;86790;-75
2023/10/31 00:35:28;;;;;;;27.92;11.15;;;10.50;99.90;;;;;;4957425;28;85561;-74
2023/10/31 00:37:54;;;;;;;25.90;11.07;;;10.40;99.90;;;;;;4955527;28;85772;-74
2023/10/31 00:40:20;;;;;;;28.15;11.98;;;10.40;99.90;;;;;;4952350;28;89387;-74
2023/10/31 00:42:45;;;;;;;29.35;11.90;;;10.40;99.90;;;;;;4953290;28;87339;-74
2023/10/31 00:45:11;;;;;;;23.05;10.45;;;10.40;99.90;;;;;;4950710;28;86620;-74
2023/10/31 00:47:37;;;;;;;27.75;11.85;;;10.40;99.90;;;;;;4951901;28;86240;-75
2023/10/31 00:50:03;;;;;;;27.30;11.50;;;10.40;99.90;;;;;;4951510;28;87170;-75
2023/10/31 00:52:29;;;;;;;30.40;11.68;;;10.40;99.90;;;;;;4951168;28;86051;-74
2023/10/31 00:54:55;;;;;;;25.17;11.80;;;10.40;99.90;;;;;;4953508;28;86048;-76
2023/10/31 00:57:20;;;;;;;28.48;12.77;;;10.40;99.90;;;;;;4955719;28;85665;-77
2023/10/31 00:59:46;;;;;;;26.15;12.32;;;10.40;99.90;;;;;;4949817;28;86016;-74
2023/10/31 01:02:12;;;;;;;28.83;11.48;;;10.50;99.90;;;;;;4951952;28;85725;-74
2023/10/31 01:04:37;;;;;;;28.27;12.05;;;10.40;99.90;;;;;;4951981;28;86027;-74
2023/10/31 01:07:03;;;;;;;25.50;12.30;;;10.40;99.90;;;;;;4948670;28;86412;-75
2023/10/31 01:09:29;;;;;;;24.17;11.70;;;10.50;99.90;;;;;;4957769;28;87171;-74
2023/10/31 01:11:56;;;;;;;25.23;11.90;;;10.50;99.90;;;;;;4952468;28;85933;-74
2023/10/31 01:14:21;;;;;;;21.70;9.93;;;10.50;99.90;;;;;;4952266;28;85959;-74
2023/10/31 01:16:47;;;;;;;22.08;10.30;;;10.50;99.90;;;;;;4953009;28;85646;-74
2023/10/31 01:19:12;;;;;;;20.83;9.68;;;10.50;99.90;;;;;;4953482;28;86930;-75
2023/10/31 01:21:38;;;;;;;17.90;9.40;;;10.50;99.90;;;;;;4954049;28;86145;-74
2023/10/31 01:24:04;;;;;;;16.35;8.10;;;10.60;99.90;;;;;;4956991;28;85879;-74
2023/10/31 01:26:30;;;;;;;15.85;8.30;;;10.50;99.90;;;;;;4956265;28;86114;-74
2023/10/31 01:28:55;;;;;;;16.50;7.85;;;10.60;99.90;;;;;;4953446;28;85865;-74
2023/10/31 01:31:21;;;;;;;14.05;5.90;;;10.60;99.90;;;;;;4954370;28;86689;-74
2023/10/31 01:33:47;;;;;;;11.23;5.95;;;10.60;99.90;;;;;;4955711;28;85633;-74
2023/10/31 01:36:14;;;;;;;12.35;5.50;;;10.60;99.90;;;;;;4956519;28;86470;-74
2023/10/31 01:38:40;;;;;;;9.05;4.32;;;10.60;99.90;;;;;;4953017;28;86751;-74
2023/10/31 01:41:05;;;;;;;7.15;4.20;;;10.60;99.90;;;;;;4951313;28;88967;-74
2023/10/31 01:43:38;;;;;;;7.13;3.35;;;10.60;99.90;;;;;;4952334;28;86038;-74
2023/10/31 01:46:04;;;;;;;5.47;2.67;;;10.60;99.90;;;;;;4954632;28;85766;-74
2023/10/31 01:48:32;;;;;;;5.55;2.88;;;10.60;99.90;;;;;;4955759;28;87014;-74
2023/10/31 01:51:04;;;;;;;7.63;3.30;;;10.70;99.90;;;;;;4956198;28;87090;-75
2023/10/31 01:53:33;;;;;;;5.97;3.20;;;10.70;99.90;;;;;;4955903;28;86398;-74
2023/10/31 01:56:01;;;;;;;5.57;3.05;;;10.70;99.90;;;;;;4955442;28;85822;-75
2023/10/31 01:58:31;;;;;;;5.13;3.20;;;10.70;99.90;;;;;;4950999;28;87192;-75
2023/10/31 02:01:01;;;;;;;4.97;2.85;;;10.70;99.90;;;;;;4961267;28;86409;-74
2023/10/31 02:03:30;;;;;;;6.30;3.13;;;10.70;99.90;;;;;;4958814;28;85428;-74
2023/10/31 02:05:57;;;;;;;6.53;3.35;;;10.70;99.90;;;;;;4963327;28;85757;-75
2023/10/31 02:08:24;;;;;;;4.90;3.47;;;10.70;99.90;;;;;;4959358;28;86864;-74
2023/10/31 02:10:49;;;;;;;10.20;3.72;;;10.70;99.90;;;;;;4959337;28;86081;-75
2023/10/31 02:13:17;;;;;;;6.75;4.07;;;10.70;99.90;;;;;;4955267;28;85814;-75
2023/10/31 02:15:44;;;;;;;6.07;3.50;;;10.80;99.90;;;;;;4954516;28;85949;-74
2023/10/31 02:18:10;;;;;;;5.55;3.08;;;10.80;99.90;;;;;;4959792;28;86343;-73
2023/10/31 02:20:36;;;;;;;6.75;3.58;;;10.80;99.90;;;;;;4959945;28;86448;-74
2023/10/31 02:23:03;;;;;;;6.20;3.50;;;10.80;99.90;;;;;;4958935;28;85721;-75
2023/10/31 02:25:30;;;;;;;7.00;3.42;;;10.80;99.90;;;;;;4952152;28;86023;-74
2023/10/31 02:28:02;;;;;;;4.53;3.20;;;10.90;99.90;;;;;;4956915;28;87981;-74
2023/10/31 02:30:30;;;;;;;7.82;3.42;;;10.90;99.90;;;;;;4960757;28;86416;-76
2023/10/31 02:40:43;;;;;;;8.70;3.88;;;10.90;99.90;;;;;;5938156;22;89651;-79
2023/10/31 02:43:08;;;;;;;10.85;3.80;;;10.90;99.90;;;;;;4946850;28;89685;-76
2023/10/31 02:45:34;;;;;;;4.65;3.63;;;10.90;99.90;;;;;;4949445;28;87522;-75
2023/10/31 02:48:00;;;;;;;4.97;3.92;;;10.90;99.90;;;;;;4949701;28;87666;-75
2023/10/31 02:50:26;;;;;;;8.32;4.03;;;10.90;99.90;;;;;;4966491;28;87883;-74
2023/10/31 02:52:52;;;;;;;8.13;4.18;;;10.90;99.90;;;;;;4948193;28;88295;-74
2023/10/31 02:55:18;;;;;;;6.63;3.75;;;10.90;99.90;;;;;;4949680;28;87813;-75
2023/10/31 02:57:43;;;;;;;5.40;3.92;;;10.90;99.90;;;;;;4949423;28;86883;-75
2023/10/31 03:00:11;;;;;;;6.68;4.15;;;10.90;99.90;;;;;;4947955;28;88723;-75
2023/10/31 03:02:36;;;;;;;6.60;4.20;;;10.90;99.90;;;;;;4944333;28;88933;-74
2023/10/31 03:05:02;;;;;;;7.78;4.30;;;10.90;99.90;;;;;;4948421;28;87359;-75
2023/10/31 03:07:28;;;;;;;8.43;4.45;;;10.80;99.90;;;;;;4947561;28;87886;-76
2023/10/31 03:09:54;;;;;;;8.55;4.35;;;10.80;99.90;;;;;;4948722;28;87831;-75
2023/10/31 03:12:19;;;;;;;7.05;4.53;;;10.80;99.90;;;;;;4944849;28;87598;-75
2023/10/31 03:14:45;;;;;;;6.70;3.90;;;10.80;99.90;;;;;;4946827;28;88828;-74
2023/10/31 03:17:11;;;;;;;6.28;4.28;;;10.80;99.90;;;;;;4950493;28;87291;-75
2023/10/31 03:19:36;;;;;;;6.80;4.10;;;10.70;99.90;;;;;;4948825;28;87675;-75
2023/10/31 03:22:02;;;;;;;8.00;4.80;;;10.70;99.90;;;;;;4943369;28;89677;-75
2023/10/31 03:24:27;;;;;;;7.43;4.70;;;10.70;99.90;;;;;;4946294;28;88215;-74
2023/10/31 03:26:53;;;;;;;6.22;4.78;;;10.70;99.90;;;;;;4942747;28;87179;-74
2023/10/31 03:29:19;;;;;;;9.20;4.80;;;10.70;99.90;;;;;;4945213;28;87835;-74
2023/10/31 03:31:44;;;;;;;9.73;4.88;;;10.70;99.90;;;;;;4951191;28;87496;-73
2023/10/31 03:34:10;;;;;;;7.47;5.28;;;10.70;99.90;;;;;;4946810;28;87251;-74
2023/10/31 03:36:36;;;;;;;5.97;4.90;;;10.60;99.90;;;;;;4950084;28;89104;-75
2023/10/31 03:39:02;;;;;;;7.20;5.25;;;10.60;99.90;;;;;;4958229;28;88492;-74
2023/10/31 03:41:29;;;;;;;8.50;5.35;;;10.60;99.90;;;;;;4952142;28;89427;-74
2023/10/31 03:43:54;;;;;;;7.20;5.60;;;10.60;99.90;;;;;;4943228;28;87560;-76
2023/10/31 03:46:20;;;;;;;7.18;5.25;;;10.60;99.90;;;;;;4947411;28;87734;-75
2023/10/31 03:48:45;;;;;;;8.55;5.45;;;10.60;99.90;;;;;;4948126;28;90125;-74
2023/10/31 03:51:11;;;;;;;7.35;4.82;;;10.70;99.90;;;;;;4943899;28;88730;-75
2023/10/31 03:53:37;;;;;;;10.75;5.53;;;10.60;99.90;;;;;;4947914;28;87214;-75
2023/10/31 03:56:03;;;;;;;6.43;5.10;;;10.60;99.90;;;;;;4947613;28;87965;-75
2023/10/31 03:58:29;;;;;;;7.72;5.40;;;10.60;99.90;;;;;;4952426;28;87237;-74
2023/10/31 04:00:54;;;;;;;7.78;5.32;;;10.60;99.90;;;;;;4952595;28;87056;-74
2023/10/31 04:03:20;;;;;;;7.35;5.35;;;10.60;99.90;;;;;;4948947;28;88564;-73
2023/10/31 04:05:45;;;;;;;6.75;4.25;;;10.60;99.90;;;;;;4949296;28;86772;-77
2023/10/31 04:08:11;;;;;;;6.35;4.40;;;10.60;99.90;;;;;;4948556;28;89517;-75
2023/10/31 04:10:37;;;;;;;6.13;4.00;;;10.60;99.90;;;;;;4954026;28;90082;-75
2023/10/31 04:13:03;;;;;;;9.02;4.70;;;10.50;99.90;;;;;;4958018;28;87119;-73
2023/10/31 04:15:28;;;;;;;9.50;4.65;;;10.60;99.90;;;;;;4959032;28;87031;-74
2023/10/31 04:17:54;;;;;;;4.78;4.07;;;10.60;99.90;;;;;;4952536;28;87025;-75
2023/10/31 04:20:19;;;;;;;6.35;4.07;;;10.60;99.90;;;;;;4953203;28;88554;-73
2023/10/31 04:22:45;;;;;;;5.82;4.57;;;10.60;99.90;;;;;;4951454;28;87623;-74
2023/10/31 04:25:11;;;;;;;4.50;3.90;;;10.50;99.90;;;;;;4951193;28;86911;-75
2023/10/31 04:27:36;;;;;;;5.47;3.70;;;10.60;99.90;;;;;;4948927;28;90077;-75
2023/10/31 04:30:02;;;;;;;5.10;3.60;;;10.60;99.90;;;;;;4946735;28;87631;-76
2023/10/31 04:32:29;;;;;;;5.32;3.95;;;10.50;99.90;;;;;;4950925;28;87642;-73
2023/10/31 04:34:54;;;;;;;4.95;3.80;;;10.50;99.90;;;;;;4950434;28;86737;-74
2023/10/31 04:37:20;;;;;;;4.65;3.47;;;10.50;99.90;;;;;;4950766;28;87395;-75
2023/10/31 04:39:46;;;;;;;5.47;3.45;;;10.50;99.90;;;;;;4955508;28;88505;-77
2023/10/31 04:42:11;;;;;;;4.72;3.28;;;10.50;99.90;;;;;;4957036;28;88185;-73
2023/10/31 04:44:37;;;;;;;6.57;3.22;;;10.50;99.90;;;;;;4954677;28;87763;-75
2023/10/31 04:47:03;;;;;;;4.95;3.60;;;10.50;99.90;;;;;;4953740;28;87530;-75
2023/10/31 04:49:34;;;;;;;5.97;3.83;;;10.50;99.90;;;;;;4954975;28;88549;-75
2023/10/31 04:52:03;;;;;;;4.65;4.10;;;10.40;99.90;;;;;;4957678;28;88276;-75
2023/10/31 04:54:28;;;;;;;4.95;4.10;;;10.40;99.90;;;;;;4956970;28;87490;-74
2023/10/31 04:56:54;;;;;;;8.18;5.00;;;10.30;99.90;;;;;;4958200;28;87145;-73
2023/10/31 04:59:20;;;;;;;5.68;4.47;;;10.30;99.90;;;;;;4963083;28;89362;-74
2023/10/31 05:01:51;;;;;;;7.70;5.13;;;10.30;99.90;;;;;;4964430;28;87262;-74
2023/10/31 05:04:18;;;;;;;7.43;5.25;;;10.20;99.90;;;;;;4959614;28;87631;-75
2023/10/31 05:06:44;;;;;;;10.55;5.97;;;10.20;99.90;;;;;;4961366;28;88542;-74
2023/10/31 05:09:10;;;;;;;9.15;6.03;;;10.20;99.90;;;;;;4955321;28;87799;-74
2023/10/31 05:11:36;;;;;;;10.48;6.55;;;10.20;99.90;;;;;;4951928;28;87964;-74
2023/10/31 05:14:02;;;;;;;9.60;5.90;;;10.10;99.90;;;;;;4953968;28;86934;-74
2023/10/31 05:16:27;;;;;;;9.50;6.47;;;10.00;99.90;;;;;;4953399;28;89630;-73
2023/10/31 05:18:53;;;;;;;9.63;7.47;;;10.00;99.90;;;;;;4952598;28;88664;-74
2023/10/31 05:21:23;;;;;;;11.07;7.40;;;9.90;99.90;;;;;;4953533;28;86433;-74
2023/10/31 05:23:52;;;;;;;10.93;7.70;;;9.90;99.90;;;;;;4950632;28;87481;-74
2023/10/31 05:26:17;;;;;;;11.80;7.35;;;9.90;99.90;;;;;;4954719;28;88710;-76
2023/10/31 05:28:43;;;;;;;12.57;7.70;;;9.90;99.90;;;;;;4953203;28;87933;-74
2023/10/31 05:31:09;;;;;;;13.10;8.75;;;9.80;99.90;;;;;;4952717;28;87036;-73
2023/10/31 05:36:03;;;;;;;12.00;8.32;;;9.80;99.90;;;;;;4949301;28;87713;-73
2023/10/31 06:30:15;;;;;;;14.57;9.90;;;9.70;99.90;;;;;;4901418;28;88016;-77
2023/10/31 06:32:40;;;;;;;12.25;8.82;;;9.70;99.90;;;;;;4906614;28;89163;-78
2023/10/31 06:35:09;;;;;;;15.15;9.98;;;9.70;99.90;;;;;;4909186;28;87968;-78
2023/10/31 06:37:36;;;;;;;15.15;10.73;;;9.70;99.90;;;;;;4908417;28;88031;-78
2023/10/31 06:40:04;;;;;;;14.65;9.75;;;9.70;99.90;;;;;;4906185;28;88345;-76
2023/10/31 06:42:30;;;;;;;15.38;10.43;;;9.70;99.90;;;;;;4921006;28;87933;-74
2023/10/31 06:44:56;;;;;;;14.65;10.02;;;9.70;99.90;;;;;;4919108;28;89662;-74
2023/10/31 06:47:21;;;;;;;16.35;10.35;;;9.80;99.90;;;;;;4931149;28;87190;-74
2023/10/31 06:49:47;;;;;;;18.27;9.85;;;9.80;99.90;;;;;;4932448;28;87264;-75
2023/10/31 06:52:12;;;;;;;15.73;10.23;;;9.80;99.90;;;;;;4931901;28;87821;-74
2023/10/31 06:54:38;;;;;;;16.33;10.15;;;9.80;99.90;;;;;;4921651;28;87878;-75
2023/10/31 06:57:21;;;;;;;16.10;9.55;;;9.80;99.90;;;;;;4923686;28;90337;-74
2023/10/31 06:59:47;;;;;;;14.32;9.05;;;9.80;99.90;;;;;;4915667;28;88440;-77
2023/10/31 07:22:55;;;;;;;11.43;6.15;;;9.80;99.90;;;;;;5809962;22;90216;-78
2023/10/31 07:25:21;;;;;;;9.15;6.20;;;9.90;99.90;;;;;;4920550;28;87594;-74
2023/10/31 07:27:47;;;;;;;10.77;6.40;;;9.90;99.90;;;;;;4930240;28;89917;-74
2023/10/31 07:30:15;;;;;;;14.20;7.50;;;9.90;99.90;;;;;;4917378;28;91617;-78
2023/10/31 07:32:41;;;;;;;11.20;6.13;;;10.00;99.90;;;;;;4920731;28;87983;-76
2023/10/31 07:35:07;;;;;;;9.70;5.95;;;10.00;99.90;;;;;;4919929;28;87911;-75
2023/10/31 07:37:33;;;;;;;10.45;6.03;;;10.00;99.90;;;;;;4921029;28;88134;-81
2023/10/31 07:40:01;;;;;;;8.18;5.60;;;10.10;99.90;;;;;;4921493;28;91040;-76
2023/10/31 07:42:30;;;;;;;12.75;6.15;;;10.10;99.90;;;;;;4918077;28;88421;-77
2023/10/31 07:44:59;;;;;;;10.45;6.60;;;10.20;99.90;;;;;;4921829;28;87934;-76
2023/10/31 07:47:25;;;;;;;8.93;5.78;;;10.20;99.90;;;;;;4935945;28;90116;-76
2023/10/31 07:49:53;;;;;;;9.15;5.65;;;10.20;99.90;;;;;;4920186;28;92236;-76
2023/10/31 07:52:20;;;;;;;8.45;5.45;;;10.30;99.90;;;;;;4920376;28;87820;-76
2023/10/31 07:54:45;;;;;;;11.70;6.10;;;10.30;99.90;;;;;;4910109;28;90709;-76
2023/10/31 07:57:11;;;;;;;8.77;5.78;;;10.40;99.90;;;;;;4917470;28;91017;-77
2023/10/31 07:59:40;;;;;;;9.52;5.75;;;10.40;99.90;;;;;;4905143;28;89477;-77
2023/10/31 08:02:06;;;;;;;10.45;6.95;;;10.50;99.90;;;;;;4925141;28;87600;-75
2023/10/31 08:04:32;;;;;;;10.43;6.78;;;10.50;99.90;;;;;;4920971;28;88102;-77
2023/10/31 08:06:58;;;;;;;14.25;6.15;;;10.60;99.90;;;;;;4922239;28;88273;-77
2023/10/31 08:09:23;;;;;;;10.32;6.28;;;10.60;99.90;;;;;;4921680;28;90154;-78
2023/10/31 08:11:52;;;;;;;7.88;5.57;;;10.60;99.90;;;;;;4924030;28;88830;-77
2023/10/31 08:14:18;;;;;;;8.70;5.10;;;10.70;99.90;;;;;;4919183;28;89088;-77
2023/10/31 08:16:44;;;;;;;10.60;4.90;;;10.80;99.90;;;;;;4923028;28;88656;-77
2023/10/31 08:19:10;;;;;;;9.23;4.93;;;10.80;99.90;;;;;;4922132;28;88862;-77
2023/10/31 08:21:38;;;;;;;8.63;4.47;;;10.80;99.90;;;;;;4921344;28;88268;-77
2023/10/31 08:24:06;;;;;;;7.60;4.50;;;10.90;99.90;;;;;;4920805;28;87857;-77
2023/10/31 08:26:35;;;;;;;8.35;4.47;;;11.00;99.90;;;;;;4926587;28;88146;-77
2023/10/31 08:29:00;;;;;;;8.93;4.57;;;11.00;99.90;;;;;;4928381;28;89488;-76
2023/10/31 08:31:26;;;;;;;6.88;4.15;;;11.10;99.90;;;;;;4921479;28;87777;-77
2023/10/31 08:33:52;;;;;;;8.63;4.60;;;11.10;99.90;;;;;;4925665;28;88622;-74
2023/10/31 08:36:17;;;;;;;5.28;3.90;;;11.20;99.90;;;;;;4924641;28;89526;-77
2023/10/31 08:38:52;;;;;;;4.30;3.55;;;11.30;99.90;;;;;;4920838;28;92301;-75
2023/10/31 08:41:19;;;;;;;9.27;4.30;;;11.30;99.90;;;;;;4921402;28;88049;-74
2023/10/31 08:43:46;;;;;;;8.00;4.60;;;11.40;99.90;;;;;;4921823;28;87670;-75
2023/10/31 08:46:12;;;;;;;9.05;4.22;;;11.40;99.90;;;;;;4919432;28;91515;-75
2023/10/31 08:48:38;;;;;;;6.72;4.47;;;11.40;99.90;;;;;;4921998;28;88250;-75
2023/10/31 08:51:04;;;;;;;7.50;4.30;;;11.40;99.90;;;;;;4921778;28;87958;-77
2023/10/31 08:53:29;;;;;;;8.80;4.50;;;11.30;99.90;;;;;;4923173;28;88981;-75
2023/10/31 08:55:56;;;;;;;8.20;5.03;;;11.40;99.90;;;;;;4923339;28;88788;-75
2023/10/31 08:58:22;;;;;;;7.20;4.18;;;11.30;99.90;;;;;;4919538;28;90342;-76
2023/10/31 09:00:47;;;;;;;8.55;4.82;;;11.30;99.90;;;;;;4920806;28;88729;-75
2023/10/31 09:03:13;;;;;;;7.47;4.15;;;11.40;99.90;;;;;;4919805;28;90667;-75
2023/10/31 09:05:40;;;;;;;6.38;4.20;;;11.40;99.90;;;;;;4920946;28;88157;-75
2023/10/31 09:08:06;;;;;;;8.63;4.10;;;11.40;99.90;;;;;;4919260;28;87571;-75
2023/10/31 09:10:35;;;;;;;6.78;3.90;;;11.40;99.90;;;;;;4921027;28;87717;-76
2023/10/31 09:13:01;;;;;;;6.63;3.50;;;11.40;99.90;;;;;;4919099;28;88609;-75
2023/10/31 09:15:27;;;;;;;6.70;3.50;;;11.40;99.90;;;;;;4920404;28;91041;-75
2023/10/31 09:17:52;;;;;;;7.68;3.60;;;11.40;99.90;;;;;;4919107;28;91193;-75
2023/10/31 09:20:18;;;;;;;5.20;3.58;;;11.40;99.90;;;;;;4921280;28;88254;-75
2023/10/31 09:22:44;;;;;;;8.13;2.65;;;11.50;99.90;;;;;;4917886;28;90275;-75
2023/10/31 09:25:10;;;;;;;6.78;2.60;;;11.60;99.90;;;;;;4918415;28;91289;-76
2023/10/31 09:27:40;;;;;;;5.82;2.60;;;11.70;99.90;;;;;;4919878;28;91951;-73
2023/10/31 09:30:07;;;;;;;6.60;3.03;;;11.80;99.90;;;;;;4920010;28;87888;-73
2023/10/31 09:32:32;;;;;;;6.85;2.75;;;11.90;99.90;;;;;;4919251;28;89044;-73
2023/10/31 09:34:58;;;;;;;4.13;2.63;;;12.00;99.90;;;;;;4918644;28;95798;-74
2023/10/31 09:37:25;;;;;;;6.57;2.45;;;12.00;99.90;;;;;;4920238;28;87699;-74
2023/10/31 09:39:51;;;;;;;4.88;2.38;;;12.10;99.90;;;;;;4918290;28;87449;-75
2023/10/31 09:42:16;;;;;;;5.55;2.67;;;12.20;99.90;;;;;;4932269;28;91359;-74
2023/10/31 09:44:42;;;;;;;6.53;2.20;;;12.30;99.90;;;;;;4919261;28;89043;-76
2023/10/31 09:47:08;;;;;;;5.45;2.30;;;12.40;99.90;;;;;;4935651;28;91750;-76
2023/10/31 09:49:34;;;;;;;4.90;2.10;;;12.40;99.90;;;;;;4935863;28;89404;-76
2023/10/31 09:52:01;;;;;;;6.50;2.55;;;12.50;99.90;;;;;;4936996;28;90852;-78
2023/10/31 09:54:26;;;;;;;6.43;2.33;;;12.60;99.90;;;;;;4935245;28;91794;-76
2023/10/31 09:56:53;;;;;;;2.50;1.70;;;12.70;99.90;;;;;;4914479;28;87958;-75
2023/10/31 09:59:18;;;;;;;4.00;2.13;;;12.80;99.90;;;;;;4916498;28;88213;-78
2023/10/31 10:02:02;;;;;;;6.95;1.90;;;12.90;99.90;;;;;;4918305;28;90409;-77
2023/10/31 10:04:29;;;;;;;5.40;1.80;;;12.90;99.90;;;;;;4916754;28;91496;-74
2023/10/31 10:07:03;;;;;;;5.43;2.03;;;12.90;99.90;;;;;;4918745;28;89851;-73
2023/10/31 10:09:32;;;;;;;3.28;1.55;;;13.10;99.90;;;;;;4919948;28;89757;-74
2023/10/31 10:12:01;;;;;;;5.90;2.13;;;13.20;99.90;;;;;;4916125;28;88598;-76
2023/10/31 10:14:28;;;;;;;7.45;1.98;;;13.30;99.90;;;;;;4918471;28;89530;-77
2023/10/31 10:16:55;;;;;;;8.13;1.42;;;13.30;99.90;;;;;;4918231;28;89891;-74
2023/10/31 10:19:22;;;;;;;5.88;1.80;;;13.30;99.90;;;;;;4917995;28;88409;-74
2023/10/31 10:22:00;;;;;;;4.30;1.60;;;13.40;99.90;;;;;;4922300;28;91444;-75
2023/10/31 10:24:26;;;;;;;7.82;2.08;;;13.40;99.90;;;;;;4918812;28;91385;-76
2023/10/31 10:26:52;;;;;;;5.60;2.00;;;13.40;99.90;;;;;;4920603;28;89341;-75
2023/10/31 10:29:18;;;;;;;8.25;2.30;;;13.50;99.90;;;;;;4922499;28;88024;-77
2023/10/31 10:31:47;;;;;;;7.95;2.38;;;13.40;99.90;;;;;;4921683;28;87356;-75
2023/10/31 10:34:16;;;;;;;4.78;2.25;;;13.40;99.90;;;;;;4920015;28;91741;-75
2023/10/31 10:36:47;;;;;;;7.22;1.90;;;13.50;99.90;;;;;;4922642;28;87812;-76
2023/10/31 10:39:20;;;;;;;4.53;1.45;;;13.50;99.90;;;;;;4904664;28;90273;-75
2023/10/31 10:41:50;;;;;;;6.00;1.43;;;13.60;99.90;;;;;;4917944;28;88570;-73
2023/10/31 10:44:17;;;;;;;5.55;1.60;;;13.70;99.90;;;;;;4922314;28;89483;-74
2023/10/31 10:46:49;;;;;;;2.90;1.35;;;13.80;99.90;;;;;;4920116;28;89098;-73
2023/10/31 10:49:16;;;;;;;3.58;1.48;;;13.80;99.90;;;;;;4920127;28;88171;-73
2023/10/31 10:52:04;;;;;;;6.07;1.33;;;13.80;99.90;;;;;;4919244;28;89985;-74
2023/10/31 10:54:52;;;;;;;5.15;1.55;;;14.00;99.90;;;;;;4919208;28;91937;-75
2023/10/31 10:57:34;;;;;;;5.07;1.90;;;14.00;99.90;;;;;;4922261;28;87453;-74
2023/10/31 11:00:04;;;;;;;8.07;2.80;;;14.10;99.90;;;;;;4919279;28;87729;-76
2023/10/31 11:02:30;;;;;;;6.43;3.22;;;14.00;99.90;;;;;;4920431;28;89499;-74
2023/10/31 11:04:56;;;;;;;7.57;2.85;;;14.00;99.90;;;;;;4920711;28;89500;-73
2023/10/31 11:07:24;;;;;;;3.85;2.10;;;14.00;99.90;;;;;;4918869;28;91833;-76
2023/10/31 11:09:50;;;;;;;4.32;2.13;;;14.00;99.90;;;;;;4937470;28;88015;-76
2023/10/31 11:12:16;;;;;;;5.63;2.17;;;14.00;99.90;;;;;;4920639;28;87815;-75
2023/10/31 11:14:42;;;;;;;4.65;1.65;;;14.00;99.90;;;;;;4910657;28;89278;-76
2023/10/31 11:17:37;;;;;;;7.45;2.10;;;14.10;99.90;;;;;;4921353;28;90022;-74
2023/10/31 11:20:04;;;;;;;8.55;2.08;;;14.10;99.90;;;;;;4916183;28;87537;-75
2023/10/31 11:22:39;;;;;;;7.45;2.15;;;14.10;99.90;;;;;;4919857;28;87740;-75
2023/10/31 11:25:09;;;;;;;8.95;1.90;;;14.10;99.90;;;;;;4920653;28;89592;-77
2023/10/31 11:27:36;;;;;;;10.90;2.65;;;14.10;99.90;;;;;;4920209;28;87626;-75
2023/10/31 11:30:05;;;;;;;9.27;2.60;;;14.10;99.90;;;;;;4917251;28;88861;-76
2023/10/31 11:32:33;;;;;;;5.97;2.67;;;14.10;99.90;;;;;;4928818;28;88134;-77
2023/10/31 11:35:02;;;;;;;3.67;2.30;;;14.20;99.90;;;;;;4918782;28;96551;-74
2023/10/31 11:37:35;;;;;;;5.30;2.65;;;14.20;99.90;;;;;;4901545;28;88795;-74
2023/10/31 11:40:26;;;;;;;8.70;3.53;;;14.20;99.90;;;;;;4936824;28;89183;-76
2023/10/31 11:42:56;;;;;;;8.93;2.42;;;14.10;99.90;;;;;;4920492;28;88168;-74
2023/10/31 11:45:47;;;;;;;9.95;3.00;;;14.10;99.90;;;;;;4935312;28;91152;-75
2023/10/31 11:48:13;;;;;;;5.90;2.28;;;14.00;99.90;;;;;;4920125;28;89538;-76
2023/10/31 11:50:41;;;;;;;5.93;2.53;;;14.00;99.90;;;;;;4920911;28;88423;-73
2023/10/31 11:53:07;;;;;;;9.25;2.30;;;14.00;99.90;;;;;;4924395;28;89041;-76
2023/10/31 11:55:47;;;;;;;9.60;2.25;;;13.90;99.90;;;;;;4918636;28;92903;-76
2023/10/31 11:58:30;;;;;;;15.05;2.25;;;13.90;99.90;;;;;;4923112;28;88387;-77
2023/10/31 12:01:25;;;;;;;4.65;1.55;;;14.00;99.90;;;;;;4921081;28;88121;-74
2023/10/31 12:03:51;;;;;;;9.02;1.92;;;14.00;99.90;;;;;;4903912;28;89099;-76
2023/10/31 12:06:20;;;;;;;6.60;1.63;;;14.10;99.90;;;;;;4926715;28;88802;-74
2023/10/31 12:09:02;;;;;;;6.30;2.08;;;14.20;99.90;;;;;;4915024;28;90460;-76
2023/10/31 12:11:28;;;;;;;9.60;2.45;;;14.20;99.90;;;;;;4936316;28;88787;-77
2023/10/31 12:14:28;;;;;;;7.80;2.63;;;14.10;99.90;;;;;;4911846;28;87785;-77
2023/10/31 12:17:13;;;;;;;11.30;3.45;;;14.10;99.90;;;;;;4925109;28;88354;-76
2023/10/31 12:19:47;;;;;;;8.80;2.63;;;14.10;99.90;;;;;;4921025;28;87727;-78
2023/10/31 12:22:25;;;;;;;10.63;2.70;;;14.20;99.90;;;;;;4920068;28;88708;-78
2023/10/31 12:25:21;;;;;;;7.18;2.33;;;14.20;99.90;;;;;;4915445;28;88212;-75
2023/10/31 12:27:52;;;;;;;9.40;2.58;;;14.20;99.90;;;;;;4926309;28;88983;-78
2023/10/31 12:30:45;;;;;;;6.05;2.30;;;14.20;99.90;;;;;;4920647;28;88730;-77
2023/10/31 12:33:17;;;;;;;8.35;2.78;;;14.20;99.90;;;;;;4923560;28;87628;-77
2023/10/31 12:35:44;;;;;;;4.38;1.70;;;14.10;99.90;;;;;;4925053;28;88491;-75
2023/10/31 12:38:35;;;;;;;8.70;1.83;;;14.00;99.90;;;;;;4923745;28;89290;-74
2023/10/31 12:41:08;;;;;;;6.88;1.80;;;13.80;99.90;;;;;;4922042;28;93395;-76
2023/10/31 12:44:10;;;;;;;7.15;1.10;;;13.80;99.90;;;;;;4919244;28;87823;-78
2023/10/31 12:46:43;;;;;;;8.93;1.67;;;13.70;99.90;;;;;;4929063;28;89518;-76
2023/10/31 12:49:15;;;;;;;;;;;13.70;99.90;;;;;;4940277;28;90728;-75
2023/10/31 12:52:03;;;;;;;10.57;1.40;;;13.70;99.90;;;;;;4928087;28;89615;-75
2023/10/31 12:54:37;;;;;;;11.52;1.30;;;13.70;99.90;;;;;;4922469;28;87896;-76
2023/10/31 12:57:09;;;;;;;6.95;1.40;;;13.60;99.90;;;;;;4910892;28;87882;-74
2023/10/31 12:59:44;;;;;;;6.85;1.25;;;13.60;99.90;;;;;;4914989;28;91349;-75
2023/10/31 13:02:26;;;;;;;6.18;1.48;;;13.60;99.90;;;;;;4920271;28;89043;-77
2023/10/31 13:04:52;;;;;;;9.30;1.98;;;13.50;99.90;;;;;;4875957;28;87561;-75
2023/10/31 13:07:37;;;;;;;9.90;1.52;;;13.50;99.90;;;;;;4899359;28;89312;-74
2023/10/31 13:10:07;;;;;;;9.95;2.10;;;13.40;99.90;;;;;;4907879;28;88039;-75
2023/10/31 13:12:33;;;;;;;4.95;1.40;;;13.40;99.90;;;;;;4916925;28;88928;-76
2023/10/31 13:15:01;;;;;;;13.50;1.50;;;13.40;99.90;;;;;;4917630;28;89128;-76
2023/10/31 13:17:32;;;;;;;5.85;1.02;;;13.40;99.90;;;;;;4881593;28;88084;-75
2023/10/31 13:19:59;;;;;;;6.03;1.15;;;13.40;99.90;;;;;;4903058;28;95120;-76
2023/10/31 13:22:25;;;;;;;6.25;1.27;;;13.40;99.90;;;;;;4924218;28;88650;-75
2023/10/31 13:24:50;;;;;;;3.97;1.45;;;13.40;99.90;;;;;;4907279;28;88071;-75
2023/10/31 13:27:16;;;;;;;4.22;1.10;;;13.30;99.90;;;;;;4905026;28;89626;-74
2023/10/31 13:29:49;;;;;;;5.07;1.02;;;13.30;99.90;;;;;;4907884;28;91271;-74
2023/10/31 13:32:16;;;;;;;6.70;1.40;;;13.20;99.90;;;;;;4917290;28;88586;-72
2023/10/31 13:34:41;;;;;;;6.05;1.50;;;13.20;99.90;;;;;;4909739;28;88287;-72
2023/10/31 13:37:08;;;;;;;8.05;1.40;;;13.20;99.90;;;;;;4915835;28;90510;-73
2023/10/31 13:39:34;;;;;;;5.82;1.20;;;13.10;99.90;;;;;;4919117;28;93486;-74
2023/10/31 13:42:00;;;;;;;3.53;0.93;;;13.10;99.90;;;;;;4917746;28;88715;-72
2023/10/31 13:44:25;;;;;;;3.30;1.13;;;13.10;99.90;;;;;;4913390;28;87957;-74
2023/10/31 13:46:51;;;;;;;6.47;1.00;;;13.00;99.90;;;;;;4923922;28;88152;-72
2023/10/31 13:49:16;;;;;;;3.40;0.95;;;13.00;99.90;;;;;;4921574;28;88180;-74
2023/10/31 13:51:42;;;;;;;2.72;1.38;;;13.00;99.90;;;;;;4921314;28;87900;-72
2023/10/31 13:54:08;;;;;;;4.47;1.42;;;12.90;99.90;;;;;;4925057;28;88100;-75
2023/10/31 13:56:33;;;;;;;7.35;1.50;;;12.90;99.90;;;;;;4921752;28;91562;-75
2023/10/31 13:58:59;;;;;;;3.55;1.52;;;12.80;99.90;;;;;;4923136;28;89882;-76
2023/10/31 14:01:25;;;;;;;3.20;1.15;;;12.80;99.90;;;;;;4925231;28;88256;-76
2023/10/31 14:03:51;;;;;;;3.55;1.08;;;12.70;99.90;;;;;;4923607;28;89252;-76
2023/10/31 14:06:17;;;;;;;4.38;1.27;;;12.60;99.90;;;;;;4924661;28;87923;-75
2023/10/31 14:08:43;;;;;;;2.40;0.93;;;12.50;99.90;;;;;;4923986;28;88674;-76
2023/10/31 14:11:08;;;;;;;2.70;1.05;;;12.50;99.90;;;;;;4922574;28;90948;-75
2023/10/31 14:13:36;;;;;;;2.65;1.10;;;12.40;99.90;;;;;;4922185;28;87751;-75